createdAt,value
2019-04-29T00:01:31.003Z,17.33
2019-04-29T00:04:02.693Z,12.47
2019-04-29T00:06:32.196Z,13.90
2019-04-29T00:09:06.836Z,11.70
2019-04-29T00:11:38.226Z,16.63
2019-04-29T00:14:08.530Z,13.20
2019-04-29T00:16:53.597Z,10.93
2019-04-29T00:19:45.220Z,12.80
2019-04-29T00:22:26.742Z,15.85
2019-04-29T00:24:56.428Z,11.97
2019-04-29T00:27:26.278Z,14.10
2019-04-29T00:29:56.217Z,11.27
2019-04-29T00:32:25.997Z,13.13
2019-04-29T00:34:55.837Z,12.77
2019-04-29T00:37:42.959Z,13.13
2019-04-29T00:40:30.689Z,12.37
2019-04-29T00:43:18.237Z,14.43
2019-04-29T00:45:48.112Z,15.90
2019-04-29T00:48:17.957Z,20.67
2019-04-29T00:50:47.808Z,15.50
2019-04-29T00:53:17.581Z,12.77
2019-04-29T00:55:49.553Z,15.13
2019-04-29T00:58:19.401Z,14.43
2019-04-29T01:00:49.346Z,16.87
2019-04-29T01:03:19.154Z,13.17
2019-04-29T01:05:48.904Z,14.03
2019-04-29T01:08:18.862Z,12.43
2019-04-29T01:10:48.629Z,12.73
2019-04-29T01:13:18.482Z,11.73
2019-04-29T01:15:49.213Z,13.97
2019-04-29T01:18:19.062Z,12.93
2019-04-29T01:20:48.897Z,13.57
2019-04-29T01:23:18.866Z,15.07
2019-04-29T01:25:51.909Z,14.80
2019-04-29T01:28:37.142Z,16.47
2019-04-29T01:31:11.961Z,14.63
2019-04-29T01:33:41.745Z,18.27
2019-04-29T01:36:45.581Z,13.10
2019-04-29T01:39:16.824Z,14.10
2019-04-29T01:42:11.617Z,15.57
2019-04-29T01:44:41.452Z,17.50
2019-04-29T01:47:11.360Z,14.33
2019-04-29T01:49:41.118Z,14.07
2019-04-29T01:52:10.857Z,15.40
2019-04-29T01:54:40.564Z,13.40
2019-04-29T01:57:10.290Z,13.93
2019-04-29T01:59:40.064Z,14.10
2019-04-29T02:02:09.814Z,12.23
2019-04-29T02:04:39.493Z,18.00
2019-04-29T02:07:09.267Z,17.87
2019-04-29T02:09:48.102Z,18.47
2019-04-29T02:12:17.803Z,17.63
2019-04-29T02:14:47.481Z,18.27
2019-04-29T02:17:17.238Z,16.07
2019-04-29T02:19:46.946Z,12.77
2019-04-29T02:22:33.032Z,16.33
2019-04-29T02:25:14.051Z,17.00
2019-04-29T02:27:43.750Z,16.70
2019-04-29T02:30:30.923Z,16.50
2019-04-29T02:33:00.608Z,14.10
2019-04-29T02:35:30.462Z,15.90
2019-04-29T02:38:01.066Z,12.97
2019-04-29T02:40:37.891Z,15.23
2019-04-29T02:43:13.620Z,16.63
2019-04-29T02:45:44.341Z,15.43
2019-04-29T02:48:14.177Z,15.50
2019-04-29T02:50:43.998Z,13.93
2019-04-29T02:53:13.721Z,15.73
2019-04-29T02:55:47.950Z,16.03
2019-04-29T02:58:23.594Z,15.93
2019-04-29T03:01:15.804Z,14.57
2019-04-29T03:03:55.575Z,14.57
2019-04-29T03:06:25.419Z,15.07
2019-04-29T03:08:55.803Z,11.47
2019-04-29T03:11:25.627Z,13.80
2019-04-29T03:13:56.363Z,13.10
2019-04-29T03:16:26.204Z,17.33
2019-04-29T03:19:00.881Z,13.47
2019-04-29T03:21:52.667Z,14.07
2019-04-29T03:24:22.453Z,14.20
2019-04-29T03:26:52.131Z,14.43
2019-04-29T03:29:24.982Z,13.87
2019-04-29T03:31:56.301Z,14.70
2019-04-29T03:34:26.218Z,15.00
2019-04-29T03:36:55.974Z,14.20
2019-04-29T03:39:25.723Z,11.33
2019-04-29T03:41:55.488Z,13.30
2019-04-29T03:44:25.161Z,16.90
2019-04-29T03:46:54.829Z,11.60
2019-04-29T03:49:24.520Z,17.67
2019-04-29T03:51:54.264Z,15.40
2019-04-29T03:54:23.933Z,11.30
2019-04-29T03:56:53.619Z,14.97
2019-04-29T03:59:23.309Z,14.47
2019-04-29T04:02:24.163Z,13.57
2019-04-29T04:05:10.793Z,9.77
2019-04-29T04:07:53.442Z,15.50
2019-04-29T04:10:23.256Z,13.27
2019-04-29T04:12:53.033Z,16.00
2019-04-29T04:15:22.774Z,14.73
2019-04-29T04:18:26.829Z,15.03
2019-04-29T04:20:56.738Z,13.27
2019-04-29T04:23:26.469Z,15.07
2019-04-29T04:25:56.231Z,13.83
2019-04-29T04:28:25.974Z,14.53
2019-04-29T04:30:55.744Z,14.00
2019-04-29T04:33:26.541Z,12.37
2019-04-29T04:35:56.279Z,14.37
2019-04-29T04:38:26.927Z,13.37
2019-04-29T04:41:01.556Z,13.17
2019-04-29T04:43:31.305Z,16.10
2019-04-29T04:46:01.414Z,15.40
2019-04-29T04:48:31.095Z,13.70
2019-04-29T04:51:00.787Z,13.00
2019-04-29T04:53:30.542Z,14.17
2019-04-29T04:56:01.572Z,12.03
2019-04-29T04:58:31.278Z,13.70
2019-04-29T05:01:00.941Z,16.30
2019-04-29T05:03:30.721Z,15.60
2019-04-29T05:06:00.455Z,18.17
2019-04-29T05:08:31.113Z,11.97
2019-04-29T05:11:00.843Z,18.17
2019-04-29T05:13:30.598Z,15.60
2019-04-29T05:16:00.316Z,13.03
2019-04-29T05:18:29.990Z,19.70
2019-04-29T05:20:59.666Z,14.90
2019-04-29T05:23:29.385Z,13.37
2019-04-29T05:25:59.073Z,14.63
2019-04-29T05:28:28.770Z,15.27
2019-04-29T05:30:58.572Z,15.47
2019-04-29T05:33:28.321Z,17.03
2019-04-29T05:36:20.134Z,13.17
2019-04-29T05:38:56.163Z,11.70
2019-04-29T05:41:30.051Z,15.45
2019-04-29T05:44:23.134Z,13.07
2019-04-29T05:46:59.161Z,12.75
2019-04-29T05:49:37.493Z,12.10
2019-04-29T05:52:15.073Z,15.20
2019-04-29T05:54:44.896Z,13.32
2019-04-29T05:57:14.621Z,9.40
2019-04-29T05:59:47.786Z,11.28
2019-04-29T06:02:15.683Z,10.68
2019-04-29T06:04:48.096Z,11.40
2019-04-29T06:07:21.457Z,9.35
2019-04-29T06:09:48.210Z,12.00
2019-04-29T06:12:17.871Z,12.10
2019-04-29T06:14:47.584Z,9.58
2019-04-29T06:17:17.263Z,7.75
2019-04-29T06:19:46.979Z,9.80
2019-04-29T06:22:16.841Z,6.55
2019-04-29T06:24:46.845Z,8.83
2019-04-29T06:27:16.519Z,8.88
2019-04-29T06:29:46.272Z,8.40
2019-04-29T06:32:16.014Z,8.73
2019-04-29T06:34:45.701Z,8.58
2019-04-29T06:37:15.553Z,11.18
2019-04-29T06:39:45.243Z,6.97
2019-04-29T06:42:15.533Z,9.28
2019-04-29T06:44:49.122Z,7.58
2019-04-29T06:47:17.685Z,11.65
2019-04-29T06:49:47.705Z,10.20
2019-04-29T06:52:17.372Z,9.40
2019-04-29T06:54:47.124Z,9.80
2019-04-29T06:57:16.877Z,12.47
2019-04-29T06:59:47.620Z,7.12
2019-04-29T07:02:18.354Z,9.68
2019-04-29T07:04:48.049Z,6.92
2019-04-29T07:07:17.722Z,11.75
2019-04-29T07:09:47.406Z,7.05
2019-04-29T07:12:17.163Z,7.17
2019-04-29T07:14:46.941Z,30.70
2019-04-29T07:17:16.624Z,7.37
2019-04-29T07:19:46.389Z,6.85
2019-04-29T07:22:16.066Z,8.18
2019-04-29T07:24:45.829Z,11.30
2019-04-29T07:27:15.503Z,8.98
2019-04-29T07:29:45.185Z,8.68
2019-04-29T07:32:15.963Z,9.70
2019-04-29T07:34:45.713Z,7.28
2019-04-29T07:37:16.739Z,7.10
2019-04-29T07:39:46.814Z,7.67
2019-04-29T07:42:16.499Z,8.38
2019-04-29T07:45:05.265Z,8.33
2019-04-29T07:47:35.877Z,8.63
2019-04-29T07:50:06.267Z,6.50
2019-04-29T07:52:36.094Z,7.62
2019-04-29T07:55:05.940Z,9.50
2019-04-29T07:57:35.689Z,7.75
2019-04-29T08:00:08.536Z,6.90
2019-04-29T08:02:38.946Z,5.53
2019-04-29T08:05:08.966Z,6.03
2019-04-29T08:07:39.285Z,7.55
2019-04-29T08:10:23.455Z,6.60
2019-04-29T08:12:44.973Z,6.53
2019-04-29T08:15:15.002Z,8.03
2019-04-29T08:17:44.715Z,7.67
2019-04-29T08:20:16.905Z,6.12
2019-04-29T08:22:46.706Z,7.22
2019-04-29T08:25:16.475Z,7.60
2019-04-29T08:27:46.233Z,6.22
2019-04-29T08:30:18.200Z,6.25
2019-04-29T08:32:47.773Z,7.40
2019-04-29T08:35:17.485Z,7.28
2019-04-29T08:37:47.172Z,7.53
2019-04-29T08:40:17.053Z,8.03
2019-04-29T08:42:52.733Z,7.37
2019-04-29T08:45:38.968Z,6.60
2019-04-29T08:48:07.522Z,7.50
2019-04-29T08:50:37.192Z,6.95
2019-04-29T08:53:07.126Z,6.30
2019-04-29T08:55:36.810Z,7.35
2019-04-29T08:58:06.877Z,5.72
2019-04-29T09:00:38.911Z,4.85
2019-04-29T09:03:08.687Z,4.58
2019-04-29T09:05:41.628Z,5.10
2019-04-29T09:08:13.160Z,5.53
2019-04-29T09:10:42.313Z,8.05
2019-04-29T09:13:12.085Z,5.83
2019-04-29T09:15:41.760Z,5.08
2019-04-29T09:18:12.615Z,5.00
2019-04-29T09:20:43.472Z,4.35
2019-04-29T09:23:15.693Z,6.62
2019-04-29T09:26:24.375Z,4.75
2019-04-29T09:28:54.384Z,5.33
2019-04-29T09:31:24.137Z,5.28
2019-04-29T09:34:06.061Z,4.25
2019-04-29T09:36:28.463Z,4.03
2019-04-29T09:38:56.729Z,4.15
2019-04-29T09:41:57.404Z,6.25
2019-04-29T09:44:52.249Z,4.17
2019-04-29T09:47:23.464Z,4.05
2019-04-29T09:49:53.149Z,3.65
2019-04-29T09:52:22.823Z,4.37
2019-04-29T09:54:52.645Z,5.03
2019-04-29T09:57:22.383Z,4.55
2019-04-29T10:00:00.222Z,4.55
2019-04-29T10:02:52.636Z,4.47
2019-04-29T10:05:41.186Z,4.55
2019-04-29T10:08:10.943Z,4.85
2019-04-29T10:10:40.771Z,4.72
2019-04-29T10:13:10.523Z,4.70
2019-04-29T10:16:00.459Z,5.40
2019-04-29T10:18:39.200Z,4.65
2019-04-29T10:21:11.113Z,4.05
2019-04-29T10:23:40.909Z,4.30
2019-04-29T10:26:10.600Z,4.53
2019-04-29T10:28:57.345Z,3.40
2019-04-29T10:31:27.107Z,6.45
2019-04-29T10:33:56.857Z,4.17
2019-04-29T10:36:26.713Z,4.62
2019-04-29T10:38:59.222Z,3.65
2019-04-29T10:41:41.808Z,5.50
2019-04-29T10:44:22.285Z,4.25
2019-04-29T10:47:08.088Z,4.95
2019-04-29T10:49:42.557Z,3.92
2019-04-29T10:52:12.389Z,4.45
2019-04-29T10:54:42.184Z,6.53
2019-04-29T10:57:14.704Z,3.90
2019-04-29T10:59:46.345Z,5.17
2019-04-29T11:02:29.275Z,3.62
2019-04-29T11:05:31.397Z,7.00
2019-04-29T11:08:15.417Z,3.83
2019-04-29T11:10:45.614Z,4.28
2019-04-29T11:13:15.476Z,4.60
2019-04-29T11:15:49.470Z,5.62
2019-04-29T11:18:18.062Z,4.62
2019-04-29T11:20:53.117Z,5.75
2019-04-29T11:23:56.204Z,3.40
2019-04-29T11:26:44.795Z,5.65
2019-04-29T11:29:14.925Z,3.62
2019-04-29T11:31:48.992Z,3.87
2019-04-29T11:34:22.785Z,2.98
2019-04-29T11:36:52.468Z,4.12
2019-04-29T11:39:22.572Z,3.05
2019-04-29T11:41:54.562Z,4.80
2019-04-29T11:44:26.548Z,2.50
2019-04-29T11:46:55.413Z,5.03
2019-04-29T11:49:33.939Z,2.80
2019-04-29T11:52:09.639Z,3.60
2019-04-29T11:54:35.226Z,1.67
2019-04-29T11:57:06.730Z,3.12
2019-04-29T11:59:44.154Z,2.35
2019-04-29T12:02:44.838Z,3.58
2019-04-29T12:05:13.466Z,1.67
2019-04-29T12:07:43.258Z,1.80
2019-04-29T12:10:13.092Z,1.40
2019-04-29T12:12:43.747Z,3.02
2019-04-29T12:15:32.550Z,2.77
2019-04-29T12:18:14.649Z,1.70
2019-04-29T12:20:55.476Z,1.82
2019-04-29T12:23:25.174Z,1.70
2019-04-29T12:25:58.588Z,3.17
2019-04-29T12:28:27.506Z,2.90
2019-04-29T12:30:59.469Z,2.52
2019-04-29T12:33:36.933Z,3.17
2019-04-29T12:36:08.810Z,2.35
2019-04-29T12:38:56.477Z,3.37
2019-04-29T12:41:49.079Z,2.70
2019-04-29T12:44:35.493Z,2.77
2019-04-29T12:47:26.735Z,2.75
2019-04-29T12:49:52.974Z,3.12
2019-04-29T12:52:22.793Z,2.35
2019-04-29T12:54:52.506Z,3.77
2019-04-29T12:57:23.527Z,3.20
2019-04-29T12:59:54.734Z,2.30
2019-04-29T13:02:42.971Z,4.15
2019-04-29T13:05:30.234Z,3.15
2019-04-29T13:08:05.975Z,3.95
2019-04-29T13:10:44.299Z,2.95
2019-04-29T13:13:15.833Z,4.80
2019-04-29T13:16:07.890Z,2.42
2019-04-29T13:18:48.944Z,2.80
2019-04-29T13:21:17.360Z,2.98
2019-04-29T13:23:59.511Z,2.85
2019-04-29T13:26:27.744Z,4.47
2019-04-29T13:29:00.524Z,3.47
2019-04-29T13:31:37.013Z,3.17
2019-04-29T13:33:54.610Z,4.28
2019-04-29T13:36:26.002Z,3.85
2019-04-29T13:38:55.754Z,3.92
2019-04-29T13:41:26.023Z,4.15
2019-04-29T13:44:04.691Z,3.75
2019-04-29T13:46:51.167Z,4.00
2019-04-29T13:49:38.037Z,4.58
2019-04-29T13:52:07.883Z,4.33
2019-04-29T13:54:42.453Z,4.15
2019-04-29T13:57:15.379Z,4.67
2019-04-29T14:00:02.882Z,4.80
2019-04-29T14:02:37.872Z,6.03
2019-04-29T14:05:09.527Z,6.50
2019-04-29T14:07:39.783Z,6.28
2019-04-29T14:10:14.996Z,5.60
2019-04-29T14:12:48.580Z,6.90
2019-04-29T14:15:14.209Z,4.58
2019-04-29T14:17:43.890Z,10.38
2019-04-29T14:20:15.959Z,10.63
2019-04-29T14:22:45.315Z,7.67
2019-04-29T14:25:15.149Z,5.78
2019-04-29T14:27:44.820Z,7.60
2019-04-29T14:30:20.467Z,8.68
2019-04-29T14:32:50.339Z,7.53
2019-04-29T14:35:37.851Z,8.98
2019-04-29T14:38:07.626Z,8.55
2019-04-29T14:40:38.957Z,8.65
2019-04-29T14:43:31.944Z,6.80
2019-04-29T14:46:19.630Z,6.70
2019-04-29T14:48:59.588Z,7.75
2019-04-29T14:51:36.295Z,8.18
2019-04-29T14:54:01.471Z,6.85
2019-04-29T14:56:33.036Z,6.97
2019-04-29T14:59:06.873Z,6.55
2019-04-29T15:01:39.132Z,7.70
2019-04-29T15:04:18.369Z,7.50
2019-04-29T15:06:44.250Z,8.50
2019-04-29T15:09:17.974Z,7.42
2019-04-29T15:12:10.706Z,10.90
2019-04-29T15:15:03.607Z,7.08
2019-04-29T15:18:01.779Z,9.08
2019-04-29T15:20:50.594Z,14.33
2019-04-29T15:23:28.533Z,9.33
2019-04-29T15:25:51.769Z,10.55
2019-04-29T15:28:21.455Z,9.85
2019-04-29T15:30:51.142Z,14.38
2019-04-29T15:33:20.829Z,11.12
2019-04-29T15:35:50.509Z,9.78
2019-04-29T15:38:20.207Z,9.53
2019-04-29T15:40:49.974Z,10.80
2019-04-29T15:43:24.262Z,11.57
2019-04-29T15:45:51.991Z,11.48
2019-04-29T15:48:21.755Z,11.60
2019-04-29T15:50:51.421Z,9.70
2019-04-29T15:53:40.326Z,10.63
2019-04-29T15:56:27.663Z,10.43
2019-04-29T15:58:41.917Z,8.80
2019-04-29T16:01:17.145Z,10.80
2019-04-29T16:03:43.424Z,10.90
2019-04-29T16:06:40.165Z,11.38
2019-04-29T16:09:30.467Z,8.45
2019-04-29T16:12:13.943Z,9.08
2019-04-29T16:14:40.374Z,11.33
2019-04-29T16:17:10.086Z,9.68
2019-04-29T16:19:39.970Z,11.22
2019-04-29T16:22:12.958Z,9.35
2019-04-29T16:24:42.162Z,9.63
2019-04-29T16:27:11.846Z,7.28
2019-04-29T16:29:46.192Z,10.38
2019-04-29T16:32:19.873Z,8.30
2019-04-29T16:34:49.655Z,9.65
2019-04-29T16:37:19.542Z,9.05
2019-04-29T16:39:52.778Z,11.38
2019-04-29T16:42:28.342Z,10.88
2019-04-29T16:44:58.155Z,8.80
2019-04-29T16:47:29.009Z,9.85
2019-04-29T16:50:04.784Z,11.00
2019-04-29T16:52:30.233Z,10.55
2019-04-29T16:55:04.153Z,9.50
2019-04-29T16:57:31.349Z,9.70
2019-04-29T17:00:06.479Z,9.98
2019-04-29T17:02:33.212Z,9.30
2019-04-29T17:05:03.022Z,9.55
2019-04-29T17:07:33.893Z,10.03
2019-04-29T17:10:23.554Z,12.63
2019-04-29T17:12:53.325Z,8.75
2019-04-29T17:15:25.475Z,13.38
2019-04-29T17:17:55.188Z,8.48
2019-04-29T17:20:24.870Z,8.53
2019-04-29T17:22:54.581Z,9.38
2019-04-29T17:25:24.925Z,8.13
2019-04-29T17:28:11.929Z,11.00
2019-04-29T17:30:58.472Z,8.18
2019-04-29T17:33:49.594Z,9.35
2019-04-29T17:36:18.553Z,8.15
2019-04-29T17:38:46.530Z,5.97
2019-04-29T17:41:16.221Z,7.30
2019-04-29T17:44:05.047Z,7.47
2019-04-29T17:46:52.778Z,6.65
2019-04-29T17:49:45.006Z,6.58
2019-04-29T17:52:25.940Z,6.17
2019-04-29T17:55:02.380Z,6.45
2019-04-29T17:57:45.685Z,6.10
2019-04-29T18:00:42.261Z,6.55
2019-04-29T18:03:19.641Z,7.85
2019-04-29T18:05:57.753Z,8.50
2019-04-29T18:08:33.204Z,7.03
2019-04-29T18:11:05.868Z,5.78
2019-04-29T18:13:35.257Z,6.92
2019-04-29T18:16:17.356Z,9.68
2019-04-29T18:18:49.206Z,6.87
2019-04-29T18:21:50.252Z,6.75
2019-04-29T18:24:41.977Z,7.53
2019-04-29T18:27:15.271Z,8.08
2019-04-29T18:29:45.782Z,9.53
2019-04-29T18:32:15.662Z,8.20
2019-04-29T18:34:45.577Z,8.28
2019-04-29T18:37:16.748Z,10.43
2019-04-29T18:39:47.807Z,8.85
2019-04-29T18:42:17.522Z,9.58
2019-04-29T18:44:54.930Z,8.93
2019-04-29T18:47:22.726Z,7.22
2019-04-29T18:49:50.168Z,8.48
2019-04-29T18:52:25.905Z,8.58
2019-04-29T18:54:51.238Z,10.15
2019-04-29T18:57:28.661Z,8.93
2019-04-29T18:59:54.995Z,9.65
2019-04-29T19:02:27.099Z,8.93
2019-04-29T19:05:17.295Z,11.10
2019-04-29T19:07:54.678Z,10.75
2019-04-29T19:10:19.207Z,11.95
2019-04-29T19:12:59.459Z,12.05
2019-04-29T19:15:21.651Z,11.80
2019-04-29T19:17:59.075Z,10.82
2019-04-29T19:20:25.018Z,13.65
2019-04-29T19:23:05.380Z,13.88
2019-04-29T19:25:25.688Z,13.10
2019-04-29T19:27:56.706Z,15.35
2019-04-29T19:30:29.038Z,12.50
2019-04-29T19:33:00.528Z,13.43
2019-04-29T19:35:33.840Z,14.15
2019-04-29T19:38:06.471Z,13.78
2019-04-29T19:40:41.395Z,13.95
2019-04-29T19:43:10.166Z,12.88
2019-04-29T19:45:37.765Z,17.70
2019-04-29T19:48:07.544Z,14.47
2019-04-29T19:50:38.052Z,12.75
2019-04-29T19:53:07.802Z,13.88
2019-04-29T19:55:41.695Z,17.15
2019-04-29T19:58:12.430Z,16.20
2019-04-29T20:00:41.206Z,16.12
2019-04-29T20:03:23.308Z,14.33
2019-04-29T20:06:09.108Z,15.23
2019-04-29T20:08:50.967Z,14.25
2019-04-29T20:11:12.445Z,14.83
2019-04-29T20:13:40.342Z,16.87
2019-04-29T20:16:24.769Z,16.60
2019-04-29T20:19:21.233Z,15.38
2019-04-29T20:21:51.178Z,16.60
2019-04-29T20:24:23.588Z,15.80
2019-04-29T20:26:52.723Z,14.15
2019-04-29T20:29:27.192Z,16.30
2019-04-29T20:31:56.470Z,19.10
2019-04-29T20:34:28.088Z,15.23
2019-04-29T20:36:57.326Z,16.87
2019-04-29T20:39:28.373Z,16.10
2019-04-29T20:42:01.074Z,16.57
2019-04-29T20:44:29.982Z,13.53
2019-04-29T20:47:17.053Z,16.10
2019-04-29T20:49:36.053Z,15.90
2019-04-29T20:52:20.300Z,14.50
2019-04-29T20:54:45.518Z,12.23
2019-04-29T20:57:20.546Z,15.18
2019-04-29T20:59:50.392Z,13.20
2019-04-29T21:02:31.480Z,13.55
2019-04-29T21:04:52.033Z,15.35
2019-04-29T21:07:25.744Z,15.43
2019-04-29T21:09:55.948Z,15.83
2019-04-29T21:12:41.694Z,15.98
2019-04-29T21:15:20.073Z,17.25
2019-04-29T21:17:49.899Z,15.25
2019-04-29T21:20:20.105Z,14.20
2019-04-29T21:22:52.471Z,13.38
2019-04-29T21:25:24.756Z,14.90
2019-04-29T21:27:57.037Z,16.48
2019-04-29T21:30:27.257Z,19.15
2019-04-29T21:32:55.855Z,15.25
2019-04-29T21:35:54.435Z,18.17
2019-04-29T21:38:39.867Z,20.68
2019-04-29T21:41:15.442Z,17.73
2019-04-29T21:43:47.086Z,18.02
2019-04-29T21:46:19.700Z,20.48
2019-04-29T21:48:48.662Z,19.20
2019-04-29T21:51:18.371Z,17.73
2019-04-29T21:53:48.161Z,22.00
2019-04-29T21:56:17.878Z,20.20
2019-04-29T21:58:47.557Z,20.90
2019-04-29T22:01:18.198Z,21.45
2019-04-29T22:03:47.885Z,21.62
2019-04-29T22:06:17.745Z,19.30
2019-04-29T22:08:47.457Z,20.52
2019-04-29T22:11:17.502Z,20.25
2019-04-29T22:13:47.374Z,20.62
2019-04-29T22:16:17.385Z,18.05
2019-04-29T22:18:52.130Z,18.82
2019-04-29T22:21:21.950Z,19.40
2019-04-29T22:23:51.300Z,19.70
2019-04-29T22:26:26.218Z,19.95
2019-04-29T22:29:01.603Z,19.40
2019-04-29T22:31:26.943Z,17.27
2019-04-29T22:33:57.412Z,18.37
2019-04-29T22:36:27.355Z,19.82
2019-04-29T22:38:57.123Z,18.30
2019-04-29T22:41:37.254Z,17.85
2019-04-29T22:44:08.224Z,17.70
2019-04-29T22:46:40.019Z,15.93
2019-04-29T22:49:10.408Z,19.90
2019-04-29T22:51:40.191Z,20.30
2019-04-29T22:54:12.925Z,21.60
2019-04-29T22:56:45.574Z,20.37
2019-04-29T22:59:14.755Z,18.77
2019-04-29T23:01:49.098Z,20.82
2019-04-29T23:04:17.993Z,18.95
2019-04-29T23:06:48.171Z,19.02
2019-04-29T23:09:18.069Z,18.77
2019-04-29T23:11:47.877Z,21.40
2019-04-29T23:14:17.567Z,20.80
2019-04-29T23:16:47.534Z,21.45
2019-04-29T23:19:19.211Z,15.63
2019-04-29T23:22:22.223Z,16.55
2019-04-29T23:25:05.621Z,20.57
2019-04-29T23:27:36.033Z,20.27
2019-04-29T23:30:07.375Z,19.42
2019-04-29T23:32:39.504Z,24.80
2019-04-29T23:35:10.054Z,22.17
2019-04-29T23:37:40.009Z,18.70
2019-04-29T23:40:10.045Z,21.95
2019-04-29T23:42:43.734Z,20.25
2019-04-29T23:45:14.524Z,22.13
2019-04-29T23:47:48.781Z,21.23
2019-04-29T23:50:18.787Z,19.85
2019-04-29T23:52:51.899Z,21.62
2019-04-29T23:55:20.510Z,21.37
2019-04-29T23:58:19.566Z,20.65
